Time;durP1;ratioP1;P1;durP2;ratioP2;P2;SDS_P1;SDS_P2;PMS_P1;PMS_P2;Temp;Humidity;BMP_temperature;BMP_pressure;BME280_temperature;BME280_humidity;BME280_pressure;Samples;Min_cycle;Max_cycle;Signal;HPM_P1;HPM_P2
2021/09/13 00:02:19;;;;;;;9.50;5.03;;;16.30;99.90;;;;;;5008593;28;20103;-63
2021/09/13 00:04:46;;;;;;;4.97;4.30;;;16.30;99.90;;;;;;5011002;28;20042;-66
2021/09/13 00:07:13;;;;;;;4.40;3.35;;;16.30;99.90;;;;;;5010821;28;20060;-64
2021/09/13 00:09:40;;;;;;;4.90;3.45;;;16.30;99.90;;;;;;5010620;28;20108;-62
2021/09/13 00:12:08;;;;;;;4.38;3.90;;;16.30;99.90;;;;;;5009438;28;20432;-65
2021/09/13 00:14:35;;;;;;;6.13;4.90;;;16.30;99.90;;;;;;5010964;28;20048;-63
2021/09/13 00:17:03;;;;;;;6.72;4.45;;;16.30;99.90;;;;;;5010624;28;20050;-63
2021/09/13 00:19:31;;;;;;;7.35;4.72;;;16.30;99.90;;;;;;5011241;28;20053;-63
2021/09/13 00:21:59;;;;;;;5.53;3.95;;;16.30;99.90;;;;;;5009622;28;20068;-63
2021/09/13 00:24:26;;;;;;;4.90;3.72;;;16.30;99.90;;;;;;5011555;28;20089;-62
2021/09/13 00:26:53;;;;;;;11.13;5.03;;;16.30;99.90;;;;;;5014739;28;20046;-65
2021/09/13 00:29:21;;;;;;;5.78;3.47;;;16.20;99.90;;;;;;5014679;28;20050;-63
2021/09/13 00:31:48;;;;;;;5.88;3.97;;;16.30;99.90;;;;;;5013474;28;20050;-64
2021/09/13 00:34:16;;;;;;;4.90;3.67;;;16.30;99.90;;;;;;5012899;28;20050;-62
2021/09/13 00:36:44;;;;;;;8.40;3.85;;;16.30;99.90;;;;;;5013184;28;20050;-63
2021/09/13 00:39:10;;;;;;;6.95;4.47;;;16.30;99.90;;;;;;5014276;28;20073;-62
2021/09/13 00:41:38;;;;;;;6.25;3.83;;;16.20;99.90;;;;;;5014458;28;20072;-64
2021/09/13 00:44:06;;;;;;;4.78;4.00;;;16.20;99.90;;;;;;5013067;28;20605;-62
2021/09/13 00:46:32;;;;;;;4.53;3.85;;;16.20;99.90;;;;;;5014593;28;20073;-62
2021/09/13 00:49:00;;;;;;;5.40;3.53;;;16.30;99.90;;;;;;5014635;28;20066;-63
2021/09/13 00:51:26;;;;;;;8.75;4.20;;;16.20;99.90;;;;;;5014731;28;20076;-63
2021/09/13 00:53:54;;;;;;;8.55;3.83;;;16.20;99.90;;;;;;5014104;28;20069;-63
2021/09/13 00:56:22;;;;;;;6.25;4.15;;;16.30;99.90;;;;;;5012744;28;20050;-64
2021/09/13 00:58:51;;;;;;;9.55;4.78;;;16.30;99.90;;;;;;5012491;28;20053;-63
2021/09/13 01:01:18;;;;;;;4.65;4.20;;;16.20;99.90;;;;;;5012631;28;20081;-64
2021/09/13 01:03:46;;;;;;;6.25;3.92;;;16.20;99.90;;;;;;5012364;28;20455;-66
2021/09/13 01:06:13;;;;;;;8.38;4.28;;;16.20;99.90;;;;;;5010517;28;20050;-63
2021/09/13 01:08:41;;;;;;;7.68;5.35;;;16.20;99.90;;;;;;5013699;28;20427;-63
2021/09/13 01:11:09;;;;;;;6.40;4.28;;;16.20;99.90;;;;;;5028991;28;20046;-63
2021/09/13 01:13:36;;;;;;;6.53;3.92;;;16.20;99.90;;;;;;5012465;28;20062;-63
2021/09/13 01:16:05;;;;;;;7.35;4.15;;;16.20;99.90;;;;;;5027338;28;20109;-63
2021/09/13 01:18:32;;;;;;;6.80;4.50;;;16.20;99.90;;;;;;5028707;28;20540;-63
2021/09/13 01:21:00;;;;;;;8.23;6.22;;;16.10;99.90;;;;;;5028699;28;20054;-63
2021/09/13 01:23:29;;;;;;;5.10;4.70;;;16.10;99.90;;;;;;5012412;28;20475;-63
2021/09/13 01:26:14;;;;;;;5.88;4.22;;;16.10;99.90;;;;;;5012013;28;20054;-64
2021/09/13 01:28:41;;;;;;;5.38;4.55;;;16.10;99.90;;;;;;5013386;28;20434;-64
2021/09/13 01:31:12;;;;;;;5.93;4.63;;;16.10;99.90;;;;;;5011748;28;20069;-66
2021/09/13 01:33:44;;;;;;;5.65;3.88;;;16.10;99.90;;;;;;5012139;28;20391;-63
2021/09/13 01:36:19;;;;;;;6.00;3.55;;;16.10;99.90;;;;;;5010623;28;20495;-63
2021/09/13 01:38:47;;;;;;;6.60;5.50;;;16.10;99.90;;;;;;5011898;28;20402;-63
2021/09/13 01:41:14;;;;;;;6.20;4.95;;;16.10;99.90;;;;;;5013087;28;20073;-62
2021/09/13 01:43:42;;;;;;;9.95;4.82;;;16.10;99.90;;;;;;5011709;28;20348;-63
2021/09/13 01:46:09;;;;;;;9.57;5.82;;;16.00;99.90;;;;;;5010220;28;20056;-63
2021/09/13 01:48:44;;;;;;;7.90;4.05;;;16.00;99.90;;;;;;5011809;28;20056;-64
2021/09/13 01:51:12;;;;;;;6.43;4.82;;;16.00;99.90;;;;;;5011600;28;20060;-63
2021/09/13 01:53:39;;;;;;;6.60;4.88;;;16.00;99.90;;;;;;5011890;28;20380;-64
2021/09/13 01:56:06;;;;;;;4.93;4.43;;;16.00;99.90;;;;;;5010017;28;20104;-63
2021/09/13 01:58:34;;;;;;;7.20;3.88;;;16.00;99.90;;;;;;5011457;28;20352;-64
2021/09/13 02:01:01;;;;;;;4.60;4.20;;;16.00;99.90;;;;;;5011349;28;20058;-66
2021/09/13 02:03:34;;;;;;;10.32;4.68;;;16.00;99.90;;;;;;5010999;28;20054;-65
2021/09/13 02:06:02;;;;;;;4.75;3.88;;;16.00;99.90;;;;;;5009309;28;20443;-63
2021/09/13 02:08:30;;;;;;;5.80;5.05;;;16.00;99.90;;;;;;5010926;28;20050;-63
2021/09/13 02:10:59;;;;;;;5.13;4.43;;;16.00;99.90;;;;;;5011070;28;20088;-63
2021/09/13 02:13:26;;;;;;;8.02;4.18;;;16.00;99.90;;;;;;5010598;28;20431;-64
2021/09/13 02:15:53;;;;;;;7.28;4.60;;;16.00;99.90;;;;;;5011060;28;20216;-64
2021/09/13 02:18:22;;;;;;;9.05;5.43;;;15.90;99.90;;;;;;5009054;28;20103;-63
2021/09/13 02:20:52;;;;;;;6.05;4.88;;;15.80;99.90;;;;;;5010647;28;20056;-63
2021/09/13 02:23:20;;;;;;;8.82;5.18;;;15.70;99.90;;;;;;5026051;28;20124;-64
2021/09/13 02:25:47;;;;;;;9.88;4.28;;;15.70;99.90;;;;;;5010548;28;20461;-64
2021/09/13 02:28:14;;;;;;;6.93;4.38;;;15.80;99.90;;;;;;5010627;28;20096;-63
2021/09/13 02:30:41;;;;;;;7.00;3.83;;;15.80;99.90;;;;;;5012206;28;20053;-63
2021/09/13 02:33:10;;;;;;;4.38;3.47;;;15.80;99.90;;;;;;5010647;28;20431;-63
2021/09/13 02:35:37;;;;;;;3.40;3.10;;;15.80;99.90;;;;;;5010633;28;20061;-62
2021/09/13 02:38:04;;;;;;;4.63;4.22;;;15.80;99.90;;;;;;5010334;28;20173;-63
2021/09/13 02:40:31;;;;;;;2.90;2.22;;;15.80;99.90;;;;;;5010638;28;20050;-66
2021/09/13 02:42:59;;;;;;;4.13;2.08;;;15.70;99.90;;;;;;5010336;28;20072;-62
2021/09/13 02:45:27;;;;;;;5.55;2.08;;;15.70;99.90;;;;;;5010642;28;20431;-64
2021/09/13 02:47:54;;;;;;;8.07;2.40;;;15.60;99.90;;;;;;5008748;28;20045;-64
2021/09/13 02:50:22;;;;;;;2.42;1.80;;;15.50;99.90;;;;;;5009547;28;20038;-64
2021/09/13 02:52:48;;;;;;;1.92;1.42;;;15.50;99.90;;;;;;5010195;28;20045;-63
2021/09/13 02:55:17;;;;;;;2.83;1.65;;;15.50;99.90;;;;;;5010424;28;20383;-63
2021/09/13 02:57:44;;;;;;;3.58;2.40;;;15.40;99.90;;;;;;5011875;28;20046;-64
2021/09/13 03:00:11;;;;;;;3.30;1.58;;;15.40;99.90;;;;;;5008885;28;20058;-63
2021/09/13 03:02:47;;;;;;;2.55;1.67;;;15.50;99.90;;;;;;5009995;28;20046;-63
2021/09/13 03:05:14;;;;;;;3.13;1.10;;;15.50;99.90;;;;;;5026857;28;20054;-62
2021/09/13 03:07:41;;;;;;;2.42;1.27;;;15.50;99.90;;;;;;5010245;28;20113;-63
2021/09/13 03:10:09;;;;;;;2.75;1.40;;;15.40;99.90;;;;;;5008837;28;20050;-63
2021/09/13 03:12:36;;;;;;;1.70;1.27;;;15.40;99.90;;;;;;5010513;28;20070;-63
2021/09/13 03:15:08;;;;;;;4.75;1.08;;;15.40;99.90;;;;;;5011331;28;20049;-63
2021/09/13 03:17:35;;;;;;;2.50;1.35;;;15.40;99.90;;;;;;5010277;28;20534;-63
2021/09/13 03:20:04;;;;;;;3.03;1.52;;;15.40;99.90;;;;;;5010175;28;20058;-63
2021/09/13 03:22:32;;;;;;;2.63;1.67;;;15.40;99.90;;;;;;5009664;28;20046;-63
2021/09/13 03:25:00;;;;;;;1.50;1.10;;;15.40;99.90;;;;;;5010352;28;20132;-63
2021/09/13 03:27:26;;;;;;;3.08;1.33;;;15.40;99.90;;;;;;5010275;28;20046;-63
2021/09/13 03:29:53;;;;;;;2.42;0.85;;;15.40;99.90;;;;;;5010271;28;20049;-63
2021/09/13 03:32:20;;;;;;;4.78;1.52;;;15.40;99.90;;;;;;5024884;28;20462;-62
2021/09/13 03:34:48;;;;;;;7.75;1.92;;;15.40;99.90;;;;;;5010177;28;20417;-64
2021/09/13 03:37:15;;;;;;;2.67;1.38;;;15.30;99.90;;;;;;5009105;28;20050;-63
2021/09/13 03:39:42;;;;;;;6.13;1.20;;;15.40;99.90;;;;;;5009766;28;20054;-64
2021/09/13 03:42:09;;;;;;;1.65;1.10;;;15.30;99.90;;;;;;5008527;28;20129;-63
2021/09/13 03:44:36;;;;;;;2.17;1.80;;;15.30;99.90;;;;;;5026248;28;20103;-64
2021/09/13 03:47:23;;;;;;;1.67;1.25;;;15.30;99.90;;;;;;5010850;28;20049;-63
2021/09/13 03:49:50;;;;;;;5.00;2.08;;;15.30;99.90;;;;;;5009960;28;20050;-62
2021/09/13 03:52:17;;;;;;;1.05;0.95;;;15.30;99.90;;;;;;5009203;28;20407;-66
2021/09/13 03:54:44;;;;;;;6.85;0.82;;;15.30;99.90;;;;;;5026131;28;20057;-63
2021/09/13 03:57:11;;;;;;;1.55;1.15;;;15.30;99.90;;;;;;5010887;28;20145;-64
2021/09/13 03:59:38;;;;;;;2.28;1.10;;;15.30;99.90;;;;;;5010615;28;20061;-62
2021/09/13 04:02:05;;;;;;;2.15;0.70;;;15.30;99.90;;;;;;5011888;28;20554;-63
2021/09/13 04:04:34;;;;;;;2.10;1.20;;;15.30;99.90;;;;;;5014092;28;20045;-63
2021/09/13 04:13:00;;;;;;;3.40;1.60;;;15.30;99.90;;;;;;5005521;28;20103;-64
2021/09/13 04:15:36;;;;;;;1.00;0.75;;;15.30;99.90;;;;;;5013231;28;20070;-63
2021/09/13 04:18:04;;;;;;;1.65;0.73;;;15.30;99.90;;;;;;5012186;28;20460;-64
2021/09/13 04:20:43;;;;;;;0.63;0.60;;;15.30;99.90;;;;;;5014464;28;20054;-63
2021/09/13 04:23:28;;;;;;;1.27;0.52;;;15.30;99.90;;;;;;5014372;28;20463;-64
2021/09/13 04:26:07;;;;;;;1.95;0.65;;;15.30;99.90;;;;;;5012815;28;20049;-63
2021/09/13 04:28:52;;;;;;;3.78;0.50;;;15.30;99.90;;;;;;5013893;28;20104;-67
2021/09/13 04:31:57;;;;;;;0.82;0.77;;;15.20;99.90;;;;;;4993049;28;20053;-67
2021/09/13 04:34:40;;;;;;;3.83;0.63;;;15.20;99.90;;;;;;5012993;28;20053;-65
2021/09/13 04:37:25;;;;;;;3.55;0.85;;;15.20;99.90;;;;;;5013807;28;20188;-65
2021/09/13 04:40:20;;;;;;;1.77;0.77;;;15.10;99.90;;;;;;5011653;28;20070;-63
2021/09/13 04:43:07;;;;;;;4.50;0.68;;;15.10;99.90;;;;;;5013611;28;20064;-64
2021/09/13 04:45:48;;;;;;;2.85;0.65;;;15.00;99.90;;;;;;5012241;28;20050;-62
2021/09/13 04:48:35;;;;;;;0.88;0.70;;;15.00;99.90;;;;;;5012874;28;20519;-62
2021/09/13 04:51:21;;;;;;;4.13;1.00;;;15.00;99.90;;;;;;5013703;28;20596;-63
2021/09/13 04:54:08;;;;;;;1.27;0.47;;;14.90;99.90;;;;;;5010815;28;20489;-63
2021/09/13 04:56:36;;;;;;;4.53;0.68;;;15.00;99.90;;;;;;5012666;28;20382;-64
2021/09/13 04:59:04;;;;;;;2.40;0.80;;;15.00;99.90;;;;;;5011971;28;20046;-64
2021/09/13 05:01:31;;;;;;;2.33;1.27;;;14.90;99.90;;;;;;5013394;28;20069;-63
2021/09/13 05:03:58;;;;;;;4.63;1.15;;;14.80;99.90;;;;;;5010560;28;20049;-63
2021/09/13 05:06:27;;;;;;;5.72;1.27;;;14.80;99.90;;;;;;5028583;28;20048;-62
2021/09/13 05:08:54;;;;;;;4.47;1.13;;;14.80;99.90;;;;;;5011408;28;20524;-64
2021/09/13 05:11:24;;;;;;;8.10;1.05;;;14.80;99.90;;;;;;5011249;28;20049;-63
2021/09/13 05:13:53;;;;;;;3.88;1.50;;;14.80;99.90;;;;;;5011718;28;20050;-63
2021/09/13 05:16:21;;;;;;;1.13;0.88;;;14.70;99.90;;;;;;5026441;28;20042;-63
2021/09/13 05:18:48;;;;;;;3.60;1.10;;;14.60;99.90;;;;;;5028307;28;20460;-67
2021/09/13 05:21:15;;;;;;;3.03;0.57;;;14.50;99.90;;;;;;5013734;28;20054;-62
2021/09/13 05:23:45;;;;;;;0.88;0.80;;;14.50;99.90;;;;;;5028117;28;20042;-64
2021/09/13 05:26:12;;;;;;;3.25;0.50;;;14.40;99.90;;;;;;5009649;28;20132;-63
2021/09/13 05:28:38;;;;;;;3.70;1.10;;;14.40;99.90;;;;;;5011816;28;20122;-64
2021/09/13 05:31:05;;;;;;;1.38;1.02;;;14.40;99.90;;;;;;5012676;28;20414;-65
2021/09/13 05:33:33;;;;;;;1.75;0.80;;;14.40;99.90;;;;;;5011090;28;20468;-63
2021/09/13 05:36:00;;;;;;;5.63;1.23;;;14.30;99.90;;;;;;5009867;28;20111;-64
2021/09/13 05:38:28;;;;;;;2.70;1.30;;;14.30;99.90;;;;;;5011475;28;20088;-64
2021/09/13 05:40:59;;;;;;;5.15;1.30;;;14.30;99.90;;;;;;5011581;28;20125;-64
2021/09/13 05:43:27;;;;;;;2.40;1.23;;;14.30;99.90;;;;;;5011053;28;20056;-67
2021/09/13 05:45:54;;;;;;;2.00;1.48;;;14.20;99.90;;;;;;5010025;28;20535;-64
2021/09/13 05:48:23;;;;;;;2.53;1.00;;;14.20;99.90;;;;;;5010622;28;20447;-66
2021/09/13 05:50:52;;;;;;;1.83;0.98;;;14.30;99.90;;;;;;5011191;28;20395;-62
2021/09/13 05:53:21;;;;;;;;;;;14.30;99.90;;;;;;5011600;28;20046;-65
2021/09/13 05:55:50;;;;;;;2.03;1.25;;;14.30;99.90;;;;;;5011073;28;19960;-63
2021/09/13 05:58:18;;;;;;;1.58;0.70;;;14.40;99.90;;;;;;5009710;28;20050;-64
2021/09/13 06:00:50;;;;;;;2.17;1.50;;;14.40;99.90;;;;;;5010715;28;20144;-64
2021/09/13 06:03:17;;;;;;;0.82;0.60;;;14.30;99.90;;;;;;5011780;28;20096;-64
2021/09/13 06:05:57;;;;;;;5.35;1.13;;;14.40;99.90;;;;;;5009269;28;20436;-64
2021/09/13 06:08:24;;;;;;;2.28;1.73;;;14.40;99.90;;;;;;5012387;28;20104;-62
2021/09/13 06:10:51;;;;;;;8.52;2.47;;;14.40;99.90;;;;;;5010139;28;20457;-64
2021/09/13 06:13:19;;;;;;;2.25;1.00;;;14.40;99.90;;;;;;5010934;28;20060;-64
2021/09/13 06:15:48;;;;;;;2.60;1.10;;;14.40;99.90;;;;;;5010905;28;20537;-64
2021/09/13 06:18:38;;;;;;;2.15;1.10;;;14.30;99.90;;;;;;5026098;28;20046;-63
2021/09/13 06:21:05;;;;;;;3.00;1.60;;;14.40;99.90;;;;;;5012335;28;20077;-63
2021/09/13 06:23:32;;;;;;;4.07;1.10;;;14.40;99.90;;;;;;5010119;28;20049;-66
2021/09/13 06:25:58;;;;;;;0.98;0.95;;;14.40;99.90;;;;;;5008472;28;20096;-66
2021/09/13 06:28:25;;;;;;;4.65;1.00;;;14.40;99.90;;;;;;5012256;28;20045;-63
2021/09/13 06:30:56;;;;;;;2.83;1.48;;;14.40;99.90;;;;;;5011060;28;20124;-62
2021/09/13 06:33:23;;;;;;;3.75;1.27;;;14.30;99.90;;;;;;5010589;28;20425;-65
2021/09/13 06:35:50;;;;;;;2.45;1.00;;;14.30;99.90;;;;;;5010592;28;20070;-64
2021/09/13 06:38:26;;;;;;;9.38;2.00;;;14.30;99.90;;;;;;5009203;28;20072;-63
2021/09/13 06:40:53;;;;;;;3.92;2.55;;;14.30;99.90;;;;;;5026643;28;20045;-63
2021/09/13 06:43:20;;;;;;;2.95;2.13;;;14.30;99.90;;;;;;5010774;28;20137;-64
2021/09/13 06:45:57;;;;;;;2.50;1.67;;;14.30;99.90;;;;;;5010177;28;20100;-65
2021/09/13 06:48:24;;;;;;;3.72;1.98;;;14.20;99.90;;;;;;5009050;28;20459;-64
2021/09/13 06:50:51;;;;;;;5.50;2.08;;;14.10;99.90;;;;;;5010361;28;20114;-64
2021/09/13 06:53:18;;;;;;;5.38;1.40;;;14.10;99.90;;;;;;5011142;28;20073;-64
2021/09/13 06:55:46;;;;;;;2.00;1.58;;;14.10;99.90;;;;;;5011629;28;20408;-65
2021/09/13 06:58:12;;;;;;;2.60;1.70;;;14.10;99.90;;;;;;5010127;28;20073;-62
2021/09/13 07:00:39;;;;;;;3.20;1.65;;;14.10;99.90;;;;;;5011147;28;20506;-63
2021/09/13 07:03:07;;;;;;;6.00;1.95;;;14.10;99.90;;;;;;5011290;28;20049;-62
2021/09/13 07:05:35;;;;;;;2.33;2.10;;;13.90;99.90;;;;;;5011731;28;20045;-62
2021/09/13 07:08:02;;;;;;;6.60;1.73;;;13.90;99.90;;;;;;5009787;28;20471;-66
2021/09/13 07:10:29;;;;;;;2.80;1.55;;;13.90;99.90;;;;;;5011351;28;20094;-62
2021/09/13 07:12:56;;;;;;;3.78;1.90;;;13.80;99.90;;;;;;5011651;28;20050;-65
2021/09/13 07:15:24;;;;;;;2.38;1.88;;;13.90;99.90;;;;;;5011482;28;20057;-62
2021/09/13 07:17:51;;;;;;;1.75;1.55;;;13.80;99.90;;;;;;5011309;28;20136;-67
2021/09/13 07:20:20;;;;;;;2.13;1.70;;;13.80;99.90;;;;;;5010127;28;20516;-66
2021/09/13 07:22:47;;;;;;;3.17;1.60;;;13.80;99.90;;;;;;5010756;28;20522;-64
2021/09/13 07:25:14;;;;;;;1.30;1.20;;;13.80;99.90;;;;;;5011259;28;20511;-63
2021/09/13 07:27:41;;;;;;;2.40;1.50;;;13.80;99.90;;;;;;5010839;28;20092;-64
2021/09/13 07:30:09;;;;;;;5.05;1.65;;;13.80;99.90;;;;;;5009696;28;20168;-63
2021/09/13 07:32:37;;;;;;;3.33;1.40;;;13.80;99.90;;;;;;5011114;28;20395;-65
2021/09/13 07:35:06;;;;;;;4.63;2.00;;;13.70;99.90;;;;;;5010874;28;20057;-62
2021/09/13 07:37:37;;;;;;;6.90;2.03;;;13.70;99.90;;;;;;5011111;28;20084;-62
2021/09/13 07:40:05;;;;;;;7.05;1.30;;;13.70;99.90;;;;;;5009585;28;20088;-63
2021/09/13 07:42:32;;;;;;;4.63;2.15;;;13.70;99.90;;;;;;5010967;28;20061;-62
2021/09/13 07:44:59;;;;;;;4.05;1.67;;;13.70;99.90;;;;;;5011261;28;20073;-62
2021/09/13 07:47:26;;;;;;;4.50;1.80;;;13.70;99.90;;;;;;5011022;28;20054;-65
2021/09/13 07:49:53;;;;;;;1.45;1.23;;;13.70;99.90;;;;;;5010773;28;20519;-64
2021/09/13 07:52:20;;;;;;;1.58;1.15;;;13.70;99.90;;;;;;5009680;28;20069;-63
2021/09/13 07:54:47;;;;;;;7.15;2.13;;;13.70;99.90;;;;;;5011030;28;20077;-63
2021/09/13 07:57:14;;;;;;;1.95;1.73;;;13.70;99.90;;;;;;5011087;28;20076;-63
2021/09/13 07:59:41;;;;;;;4.13;1.40;;;13.70;99.90;;;;;;5010862;28;20118;-63
2021/09/13 08:02:09;;;;;;;6.07;1.73;;;13.70;99.90;;;;;;5009066;28;20061;-63
2021/09/13 08:04:37;;;;;;;5.22;1.55;;;13.80;99.90;;;;;;5010578;28;20104;-63
2021/09/13 08:07:03;;;;;;;5.57;1.52;;;13.80;99.90;;;;;;5010852;28;20081;-64
2021/09/13 08:09:32;;;;;;;3.47;1.50;;;13.90;99.90;;;;;;5010978;28;20217;-64
2021/09/13 08:11:58;;;;;;;10.43;1.85;;;13.90;99.90;;;;;;5009358;28;20461;-65
2021/09/13 08:14:27;;;;;;;4.20;1.38;;;13.90;99.90;;;;;;5010562;28;20411;-65
2021/09/13 08:16:54;;;;;;;3.33;1.08;;;14.00;99.90;;;;;;5010611;28;20136;-66
2021/09/13 08:19:21;;;;;;;3.85;1.27;;;14.00;99.90;;;;;;5010428;28;20050;-64
2021/09/13 08:21:49;;;;;;;7.18;2.20;;;14.00;99.90;;;;;;5010666;28;20049;-63
2021/09/13 08:24:16;;;;;;;2.83;1.73;;;14.00;99.90;;;;;;5009133;28;20391;-63
2021/09/13 08:26:44;;;;;;;6.28;1.33;;;14.00;99.90;;;;;;5010630;28;20435;-65
2021/09/13 08:29:14;;;;;;;2.78;1.38;;;14.00;99.90;;;;;;5010629;28;20061;-64
2021/09/13 08:31:42;;;;;;;1.95;1.63;;;14.00;99.90;;;;;;5010632;28;20058;-64
2021/09/13 08:34:11;;;;;;;6.18;1.55;;;14.00;99.90;;;;;;5009206;28;20056;-63
2021/09/13 08:36:38;;;;;;;2.80;1.10;;;14.00;99.90;;;;;;5010624;28;20097;-65
2021/09/13 08:39:05;;;;;;;6.95;1.73;;;14.00;99.90;;;;;;5010498;28;20123;-63
2021/09/13 08:41:32;;;;;;;2.10;1.90;;;14.10;99.90;;;;;;5010753;28;20062;-67
2021/09/13 08:44:00;;;;;;;4.72;1.40;;;14.20;99.90;;;;;;5009139;28;20377;-62
2021/09/13 08:46:51;;;;;;;3.00;1.38;;;14.30;99.90;;;;;;5012695;28;20049;-62
2021/09/13 08:49:29;;;;;;;;;;;14.40;99.90;;;;;;5014638;28;20414;-65
2021/09/13 08:51:56;;;;;;;2.53;1.42;;;14.30;99.90;;;;;;5012795;28;19921;-63
2021/09/13 08:54:26;;;;;;;3.63;1.10;;;14.30;99.90;;;;;;5013919;28;20074;-64
2021/09/13 08:56:59;;;;;;;2.53;1.50;;;14.20;99.90;;;;;;5014078;28;20127;-63
2021/09/13 08:59:26;;;;;;;2.17;1.52;;;14.30;99.90;;;;;;5014232;28;20050;-65
2021/09/13 09:01:54;;;;;;;15.65;2.38;;;14.30;99.90;;;;;;5013772;28;20054;-63
2021/09/13 09:04:21;;;;;;;2.00;1.60;;;14.30;99.90;;;;;;5012530;28;20065;-65
2021/09/13 09:06:49;;;;;;;4.20;2.03;;;14.30;99.90;;;;;;5013865;28;20053;-64
2021/09/13 09:09:21;;;;;;;6.93;1.98;;;14.20;99.90;;;;;;5014073;28;20046;-65
2021/09/13 09:12:05;;;;;;;6.90;1.70;;;14.20;99.90;;;;;;5013735;28;20080;-67
2021/09/13 09:14:38;;;;;;;2.97;1.17;;;14.10;99.90;;;;;;5012015;28;20069;-65
2021/09/13 09:17:23;;;;;;;9.00;1.55;;;14.10;99.90;;;;;;5013574;28;20068;-64
2021/09/13 09:20:06;;;;;;;5.45;1.30;;;14.20;99.90;;;;;;5013539;28;20042;-68
2021/09/13 09:22:37;;;;;;;5.93;1.40;;;14.10;99.90;;;;;;5012173;28;20108;-68
2021/09/13 09:25:06;;;;;;;2.72;1.25;;;14.10;99.90;;;;;;5014114;28;20164;-68
2021/09/13 09:27:53;;;;;;;2.85;1.27;;;14.10;99.90;;;;;;5013445;28;20046;-67
2021/09/13 09:30:21;;;;;;;3.92;1.75;;;14.00;99.90;;;;;;5012071;28;20046;-64
2021/09/13 09:33:15;;;;;;;3.33;1.15;;;14.00;99.90;;;;;;5013333;28;20046;-66
2021/09/13 09:35:43;;;;;;;1.92;1.27;;;14.00;99.90;;;;;;5013174;28;20452;-67
2021/09/13 09:38:33;;;;;;;6.00;1.52;;;13.90;99.90;;;;;;5011274;28;20077;-68
2021/09/13 09:41:15;;;;;;;5.10;1.60;;;13.80;99.90;;;;;;5013133;28;20076;-66
2021/09/13 09:44:00;;;;;;;2.08;1.10;;;13.90;99.90;;;;;;5013036;28;20443;-67
2021/09/13 09:46:38;;;;;;;5.47;2.17;;;13.80;99.90;;;;;;5011650;28;20136;-67
2021/09/13 09:49:10;;;;;;;7.20;1.50;;;13.90;99.90;;;;;;5012560;28;20041;-68
2021/09/13 09:51:40;;;;;;;2.97;1.00;;;14.00;99.90;;;;;;5013115;28;20054;-66
2021/09/13 09:54:15;;;;;;;2.85;1.63;;;13.90;99.90;;;;;;5011160;28;20092;-68
2021/09/13 09:56:44;;;;;;;7.05;1.33;;;13.90;99.90;;;;;;5012695;28;20057;-67
2021/09/13 09:59:12;;;;;;;3.13;1.63;;;13.90;99.90;;;;;;5012831;28;20076;-66
2021/09/13 10:01:44;;;;;;;3.95;1.95;;;13.90;99.90;;;;;;5012504;28;20068;-67
2021/09/13 10:04:23;;;;;;;2.38;1.45;;;13.80;99.90;;;;;;5011019;28;20061;-67
2021/09/13 10:06:56;;;;;;;3.45;1.60;;;13.80;99.90;;;;;;5012874;28;20050;-68
2021/09/13 10:09:26;;;;;;;3.67;1.58;;;13.90;99.90;;;;;;5012531;28;20049;-65
2021/09/13 10:11:55;;;;;;;2.83;1.65;;;13.80;99.90;;;;;;5012680;28;20096;-67
2021/09/13 10:14:24;;;;;;;2.75;1.35;;;13.80;99.90;;;;;;5011107;28;20049;-68
2021/09/13 10:16:52;;;;;;;7.95;2.80;;;13.80;99.90;;;;;;5013262;28;20054;-65
2021/09/13 10:19:32;;;;;;;1.92;1.55;;;13.80;99.90;;;;;;5013481;28;20130;-67
2021/09/13 10:22:00;;;;;;;3.45;1.45;;;13.80;99.90;;;;;;5010769;28;20052;-65
2021/09/13 10:24:31;;;;;;;2.45;1.30;;;13.70;99.90;;;;;;5011809;28;20057;-66
2021/09/13 10:27:08;;;;;;;5.05;1.95;;;13.70;99.90;;;;;;5012310;28;20518;-64
2021/09/13 10:29:35;;;;;;;2.30;1.35;;;13.70;99.90;;;;;;5012315;28;20468;-68
2021/09/13 10:32:08;;;;;;;3.70;2.08;;;13.70;99.90;;;;;;5010593;28;20096;-67
2021/09/13 10:34:41;;;;;;;4.75;1.83;;;13.70;99.90;;;;;;5011964;28;20066;-66
2021/09/13 10:37:16;;;;;;;3.97;1.85;;;13.70;99.90;;;;;;5011985;28;20104;-65
2021/09/13 10:39:57;;;;;;;3.20;0.90;;;13.70;99.90;;;;;;5011832;28;20045;-62
2021/09/13 10:42:33;;;;;;;1.55;1.08;;;13.60;99.90;;;;;;5010946;28;20437;-65
2021/09/13 10:45:24;;;;;;;3.67;1.27;;;13.70;99.90;;;;;;5011978;28;20056;-66
2021/09/13 10:47:54;;;;;;;2.22;1.27;;;13.70;99.90;;;;;;5011600;28;20388;-67
2021/09/13 10:50:37;;;;;;;2.55;1.77;;;13.90;99.90;;;;;;5010464;28;20121;-65
2021/09/13 10:53:24;;;;;;;3.92;1.48;;;13.90;99.90;;;;;;5012021;28;20478;-67
2021/09/13 10:56:01;;;;;;;3.78;2.22;;;13.90;99.90;;;;;;5011653;28;20431;-66
2021/09/13 10:58:50;;;;;;;3.58;1.35;;;14.00;99.90;;;;;;5010254;28;20092;-67
2021/09/13 11:01:17;;;;;;;3.22;1.67;;;14.10;99.90;;;;;;5011540;28;20473;-66
2021/09/13 11:03:49;;;;;;;3.22;1.15;;;14.20;99.90;;;;;;5011192;28;20096;-67
2021/09/13 11:06:17;;;;;;;1.80;1.33;;;14.30;99.90;;;;;;5010077;28;20090;-66
2021/09/13 11:08:52;;;;;;;1.33;0.88;;;14.30;99.90;;;;;;5010787;28;20097;-62
2021/09/13 11:11:23;;;;;;;2.15;1.60;;;14.30;99.90;;;;;;5011179;28;20050;-62
2021/09/13 11:14:00;;;;;;;4.07;0.90;;;14.20;99.90;;;;;;5011029;28;20480;-63
2021/09/13 11:16:32;;;;;;;1.30;0.88;;;14.30;99.90;;;;;;5010026;28;20508;-62
2021/09/13 11:19:03;;;;;;;4.28;1.25;;;14.30;99.90;;;;;;5011181;28;20056;-65
2021/09/13 11:21:33;;;;;;;2.33;1.13;;;14.40;99.90;;;;;;5010871;28;20099;-64
2021/09/13 11:24:11;;;;;;;1.33;1.23;;;14.30;99.90;;;;;;5009995;28;20077;-64
2021/09/13 11:26:41;;;;;;;3.25;1.25;;;14.30;99.90;;;;;;5011138;28;20423;-67
2021/09/13 11:29:19;;;;;;;3.78;1.02;;;14.20;99.90;;;;;;5011088;28;20053;-64
2021/09/13 11:31:51;;;;;;;1.88;1.00;;;14.30;99.90;;;;;;5011038;28;20049;-64
2021/09/13 11:34:35;;;;;;;5.47;2.10;;;14.40;99.90;;;;;;5009897;28;20046;-65
2021/09/13 11:37:19;;;;;;;3.38;1.50;;;14.60;99.90;;;;;;5011303;28;20065;-64
2021/09/13 11:40:08;;;;;;;8.07;3.97;;;14.70;99.90;;;;;;5009127;28;20096;-62
2021/09/13 11:42:37;;;;;;;3.57;1.80;;;14.80;99.90;;;;;;5010704;28;20101;-63
2021/09/13 11:45:12;;;;;;;2.95;1.30;;;14.70;99.90;;;;;;5011166;28;20295;-63
2021/09/13 11:47:53;;;;;;;2.03;1.08;;;14.80;99.90;;;;;;5010708;28;20472;-64
2021/09/13 11:50:23;;;;;;;1.30;1.20;;;14.60;99.90;;;;;;5009348;28;20054;-65
2021/09/13 11:52:49;;;;;;;1.25;0.85;;;14.50;99.90;;;;;;5010595;28;20391;-66
2021/09/13 11:55:21;;;;;;;4.82;1.33;;;14.50;99.90;;;;;;5010569;28;20053;-63
2021/09/13 11:57:50;;;;;;;1.25;1.15;;;14.70;99.90;;;;;;5010948;28;20050;-66
2021/09/13 12:00:21;;;;;;;1.45;0.80;;;14.60;99.90;;;;;;5009214;28;20096;-64
2021/09/13 12:02:59;;;;;;;0.88;0.80;;;14.70;99.90;;;;;;5010706;28;20096;-65
2021/09/13 12:05:37;;;;;;;3.08;1.05;;;14.70;99.90;;;;;;5010481;28;20042;-66
2021/09/13 12:08:25;;;;;;;2.35;1.40;;;14.80;99.90;;;;;;5009301;28;20073;-64
2021/09/13 12:10:52;;;;;;;3.65;0.80;;;14.90;99.90;;;;;;5010289;28;20084;-62
2021/09/13 12:13:23;;;;;;;1.30;1.20;;;14.90;99.90;;;;;;5010839;28;20136;-63
2021/09/13 12:15:55;;;;;;;2.13;0.95;;;14.80;99.90;;;;;;5010840;28;20045;-70
2021/09/13 12:18:22;;;;;;;1.92;1.50;;;14.60;99.90;;;;;;5009056;28;20076;-63
2021/09/13 12:20:51;;;;;;;2.47;1.00;;;14.70;99.90;;;;;;5011904;28;20057;-66
2021/09/13 12:23:22;;;;;;;2.95;0.80;;;14.80;99.90;;;;;;5014735;28;20137;-70
2021/09/13 12:25:51;;;;;;;5.20;1.47;;;14.90;99.90;;;;;;5014654;28;20100;-68
2021/09/13 12:28:26;;;;;;;2.88;0.80;;;15.10;99.90;;;;;;5013210;28;20326;-62
2021/09/13 12:30:55;;;;;;;1.25;1.15;;;15.20;99.90;;;;;;5014097;28;20080;-62
2021/09/13 12:33:47;;;;;;;2.13;1.20;;;15.20;99.90;;;;;;5014427;28;20046;-62
2021/09/13 12:36:22;;;;;;;1.10;0.98;;;15.10;99.90;;;;;;5013017;28;20058;-63
2021/09/13 12:38:51;;;;;;;1.50;1.40;;;15.00;99.90;;;;;;5014047;28;20475;-65
2021/09/13 12:41:33;;;;;;;1.30;1.02;;;15.00;99.90;;;;;;5014185;28;20050;-65
2021/09/13 12:44:21;;;;;;;4.35;1.23;;;14.90;99.90;;;;;;5012447;28;20344;-65
2021/09/13 12:46:52;;;;;;;1.77;1.10;;;14.80;99.90;;;;;;5014369;28;20057;-66
2021/09/13 12:49:20;;;;;;;1.92;1.48;;;14.80;99.90;;;;;;5013875;28;20201;-63
2021/09/13 12:52:01;;;;;;;2.00;1.10;;;14.90;99.90;;;;;;5013815;28;20080;-65
2021/09/13 12:54:33;;;;;;;2.63;1.17;;;15.20;99.90;;;;;;5012295;28;20054;-64
2021/09/13 12:57:02;;;;;;;1.95;0.90;;;15.40;99.90;;;;;;5013719;28;20046;-64
2021/09/13 12:59:31;;;;;;;2.70;1.10;;;15.50;99.90;;;;;;5013437;28;20431;-65
2021/09/13 13:01:58;;;;;;;1.63;1.23;;;15.30;99.90;;;;;;5011857;28;20073;-64
2021/09/13 13:04:37;;;;;;;5.35;1.30;;;15.30;99.90;;;;;;5012291;28;20368;-66
2021/09/13 13:07:06;;;;;;;2.60;1.33;;;15.20;99.90;;;;;;5013361;28;20046;-66
2021/09/13 13:09:34;;;;;;;3.80;1.17;;;15.10;99.90;;;;;;5013569;28;20492;-70
2021/09/13 13:12:01;;;;;;;2.05;1.25;;;15.10;99.90;;;;;;5011885;28;20323;-67
2021/09/13 13:14:28;;;;;;;2.20;1.00;;;15.00;99.90;;;;;;5013581;28;20103;-65